Time;durP1;ratioP1;P1;durP2;ratioP2;P2;SDS_P1;SDS_P2;PMS_P1;PMS_P2;Temp;Humidity;BMP_temperature;BMP_pressure;BME280_temperature;BME280_humidity;BME280_pressure;Samples;Min_cycle;Max_cycle;Signal;HPM_P1;HPM_P2
2021/08/01 00:01:24;;;;;;;10.23;4.38;;;15.70;99.90;;;;;;3487133;41;20089;-74
2021/08/01 00:03:52;;;;;;;12.07;6.07;;;15.80;99.90;;;;;;3486176;41;20052;-73
2021/08/01 00:06:18;;;;;;;10.88;4.53;;;15.70;99.90;;;;;;3487345;41;20071;-75
2021/08/01 00:08:45;;;;;;;10.50;5.22;;;15.70;99.90;;;;;;3488060;41;20112;-74
2021/08/01 00:11:11;;;;;;;10.73;5.75;;;15.70;99.90;;;;;;3488597;41;20048;-75
2021/08/01 00:13:37;;;;;;;9.32;5.90;;;15.80;99.90;;;;;;3489184;41;20049;-76
2021/08/01 00:16:03;;;;;;;11.48;5.95;;;15.70;99.90;;;;;;3480590;41;20052;-74
2021/08/01 00:18:29;;;;;;;10.00;4.95;;;15.80;99.90;;;;;;3484508;41;20044;-74
2021/08/01 00:20:55;;;;;;;14.20;5.93;;;15.80;99.90;;;;;;3497554;41;20049;-75
2021/08/01 00:23:22;;;;;;;7.88;5.05;;;15.70;99.90;;;;;;3497928;41;20135;-73
2021/08/01 00:25:48;;;;;;;10.82;5.57;;;15.70;99.90;;;;;;3491367;41;20321;-74
2021/08/01 00:28:13;;;;;;;13.35;5.57;;;15.70;99.90;;;;;;3489127;41;20336;-76
2021/08/01 00:30:39;;;;;;;8.13;5.53;;;15.70;99.90;;;;;;3489088;41;20053;-76
2021/08/01 00:33:05;;;;;;;10.05;5.05;;;15.70;99.90;;;;;;3488689;41;20053;-75
2021/08/01 00:35:31;;;;;;;11.57;6.70;;;15.70;99.90;;;;;;3488853;41;20487;-76
2021/08/01 00:37:57;;;;;;;14.52;6.70;;;15.70;99.90;;;;;;3479912;41;20048;-76
2021/08/01 00:40:23;;;;;;;7.65;4.68;;;15.70;99.90;;;;;;3488857;41;20415;-75
2021/08/01 00:42:49;;;;;;;15.15;5.88;;;15.70;99.90;;;;;;3488453;41;20575;-76
2021/08/01 00:45:16;;;;;;;10.00;5.72;;;15.70;99.90;;;;;;3488844;41;20421;-76
2021/08/01 00:47:43;;;;;;;10.75;5.75;;;15.70;99.90;;;;;;3488766;41;20052;-77
2021/08/01 00:50:10;;;;;;;10.52;6.40;;;15.70;99.90;;;;;;3472510;41;20060;-75
2021/08/01 00:52:37;;;;;;;13.93;6.43;;;15.70;99.90;;;;;;3479748;41;20052;-76
2021/08/01 00:55:05;;;;;;;12.43;6.22;;;15.70;99.90;;;;;;3480291;41;20047;-77
2021/08/01 00:57:31;;;;;;;11.52;6.03;;;15.70;99.90;;;;;;3488922;41;20041;-75
2021/08/01 00:59:57;;;;;;;10.65;6.40;;;15.70;99.90;;;;;;3480106;41;20060;-76
2021/08/01 01:02:34;;;;;;;14.25;6.60;;;15.70;99.90;;;;;;3480110;41;20251;-76
2021/08/01 01:05:22;;;;;;;13.43;6.53;;;15.60;99.90;;;;;;3488918;41;20048;-77
2021/08/01 01:07:52;;;;;;;17.20;6.60;;;15.60;99.90;;;;;;3488522;41;20041;-77
2021/08/01 01:10:40;;;;;;;14.25;6.50;;;15.60;99.90;;;;;;3488936;41;20049;-76
2021/08/01 01:13:15;;;;;;;15.10;7.53;;;15.60;99.90;;;;;;3488531;41;20084;-76
2021/08/01 01:16:01;;;;;;;14.40;6.35;;;15.60;99.90;;;;;;3488672;41;20112;-76
2021/08/01 01:18:34;;;;;;;15.13;6.28;;;15.60;99.90;;;;;;3490426;41;20049;-76
2021/08/01 01:21:22;;;;;;;12.40;7.20;;;15.60;99.90;;;;;;3489187;41;20088;-78
2021/08/01 01:24:08;;;;;;;12.70;6.63;;;15.50;99.90;;;;;;3488498;41;20415;-77
2021/08/01 01:26:42;;;;;;;15.43;6.32;;;15.50;99.90;;;;;;3492189;41;20057;-76
2021/08/01 01:29:21;;;;;;;16.00;6.72;;;15.50;99.90;;;;;;3488857;41;20043;-77
2021/08/01 01:31:47;;;;;;;10.32;5.93;;;15.50;99.90;;;;;;3488259;41;20053;-76
2021/08/01 01:34:41;;;;;;;16.27;7.15;;;15.40;99.90;;;;;;3488640;41;20062;-77
2021/08/01 01:37:10;;;;;;;15.20;6.32;;;15.40;99.90;;;;;;3488864;41;20084;-78
2021/08/01 01:39:38;;;;;;;13.38;6.15;;;15.40;99.90;;;;;;3488612;41;20476;-77
2021/08/01 01:42:06;;;;;;;10.02;5.95;;;15.40;99.90;;;;;;3488450;41;20073;-76
2021/08/01 01:44:34;;;;;;;9.48;4.97;;;15.30;99.90;;;;;;3488452;41;20202;-77
2021/08/01 01:47:01;;;;;;;9.70;6.30;;;15.30;99.90;;;;;;3488362;41;20052;-77
2021/08/01 01:49:27;;;;;;;8.18;5.10;;;15.30;99.90;;;;;;3488651;41;20130;-77
2021/08/01 01:51:54;;;;;;;9.77;5.65;;;15.30;99.90;;;;;;3488197;41;20048;-77
2021/08/01 01:54:21;;;;;;;10.52;5.82;;;15.30;99.90;;;;;;3480019;41;20095;-78
2021/08/01 01:56:47;;;;;;;8.98;5.78;;;15.30;99.90;;;;;;3488196;41;20088;-77
2021/08/01 01:59:34;;;;;;;7.65;5.10;;;15.30;99.90;;;;;;3474422;41;20037;-76
2021/08/01 02:02:00;;;;;;;10.18;5.82;;;15.30;99.90;;;;;;3479902;41;20052;-77
2021/08/01 02:04:25;;;;;;;12.77;6.70;;;15.30;99.90;;;;;;3488831;41;20089;-75
2021/08/01 02:06:52;;;;;;;11.77;6.10;;;15.30;99.90;;;;;;3488491;41;20045;-76
2021/08/01 02:09:38;;;;;;;13.02;6.22;;;15.30;99.90;;;;;;3488579;41;20371;-76
2021/08/01 02:12:16;;;;;;;10.77;5.97;;;15.30;99.90;;;;;;3488346;41;20044;-77
2021/08/01 02:14:58;;;;;;;10.88;5.95;;;15.30;99.90;;;;;;3488355;41;20076;-77
2021/08/01 02:17:32;;;;;;;14.23;6.38;;;15.30;99.90;;;;;;3488876;41;20041;-77
2021/08/01 02:20:00;;;;;;;10.38;5.20;;;15.20;99.90;;;;;;3497983;41;20040;-76
2021/08/01 02:22:26;;;;;;;11.52;5.72;;;15.20;99.90;;;;;;3497972;41;20056;-78
2021/08/01 02:24:54;;;;;;;12.98;5.70;;;15.20;99.90;;;;;;3496695;41;20040;-77
2021/08/01 02:27:20;;;;;;;12.45;6.05;;;15.20;99.90;;;;;;3491546;41;20132;-78
2021/08/01 02:29:49;;;;;;;12.00;6.22;;;15.20;99.90;;;;;;3487549;41;20056;-78
2021/08/01 02:32:17;;;;;;;10.63;5.82;;;15.20;99.90;;;;;;3488606;41;20076;-78
2021/08/01 02:34:44;;;;;;;9.32;5.85;;;15.20;99.90;;;;;;3488286;41;20040;-78
2021/08/01 02:37:11;;;;;;;11.88;5.60;;;15.20;99.90;;;;;;3488623;41;20065;-77
2021/08/01 02:39:38;;;;;;;15.15;7.70;;;15.20;99.90;;;;;;3488364;41;20040;-77
2021/08/01 02:42:05;;;;;;;11.98;6.03;;;15.20;99.90;;;;;;3479305;41;20044;-77
2021/08/01 02:44:35;;;;;;;13.23;6.55;;;15.20;99.90;;;;;;3488438;41;20048;-75
2021/08/01 02:47:02;;;;;;;9.95;5.85;;;15.20;99.90;;;;;;3488140;41;20048;-77
2021/08/01 02:49:32;;;;;;;15.95;6.00;;;15.20;99.90;;;;;;3488312;41;20053;-76
2021/08/01 02:52:00;;;;;;;11.68;6.07;;;15.20;99.90;;;;;;3488502;41;20045;-77
2021/08/01 02:54:27;;;;;;;13.07;6.90;;;15.20;99.90;;;;;;3488069;41;20122;-75
2021/08/01 02:57:03;;;;;;;12.00;6.75;;;15.20;99.90;;;;;;3487973;41;20088;-78
2021/08/01 02:59:30;;;;;;;13.07;6.78;;;15.20;99.90;;;;;;3488366;41;20045;-77
2021/08/01 03:01:57;;;;;;;14.18;8.32;;;15.20;99.90;;;;;;3488529;41;20232;-75
2021/08/01 03:04:27;;;;;;;14.50;8.02;;;15.20;99.90;;;;;;3488242;41;20067;-76
2021/08/01 03:06:54;;;;;;;10.43;6.10;;;15.20;99.90;;;;;;3487953;41;20606;-76
2021/08/01 03:09:20;;;;;;;9.90;5.43;;;15.20;99.90;;;;;;3488226;41;20064;-75
2021/08/01 03:11:46;;;;;;;9.35;5.53;;;15.20;99.90;;;;;;3487731;41;20048;-75
2021/08/01 03:14:13;;;;;;;12.15;7.55;;;15.20;99.90;;;;;;3487946;41;20045;-76
2021/08/01 03:16:39;;;;;;;14.80;7.70;;;15.20;99.90;;;;;;3488010;41;20108;-76
2021/08/01 03:19:05;;;;;;;13.13;7.50;;;15.20;99.90;;;;;;3489822;41;20053;-77
2021/08/01 03:21:31;;;;;;;15.52;9.00;;;15.30;99.90;;;;;;3479034;41;20071;-76
2021/08/01 03:23:57;;;;;;;11.55;8.07;;;15.30;99.90;;;;;;3487828;41;20068;-77
2021/08/01 03:26:23;;;;;;;14.10;8.30;;;15.30;99.90;;;;;;3488937;41;20037;-76
2021/08/01 03:28:49;;;;;;;14.25;7.93;;;15.20;99.90;;;;;;3487774;41;20427;-76
2021/08/01 03:31:15;;;;;;;11.45;8.27;;;15.20;99.90;;;;;;3488073;41;20132;-76
2021/08/01 03:33:40;;;;;;;15.35;8.95;;;15.30;99.90;;;;;;3487655;41;20085;-77
2021/08/01 03:36:06;;;;;;;13.35;8.57;;;15.30;99.90;;;;;;3478722;41;20352;-76
2021/08/01 03:38:32;;;;;;;13.07;8.30;;;15.30;99.90;;;;;;3487671;41;20047;-76
2021/08/01 03:40:58;;;;;;;15.27;8.10;;;15.30;99.90;;;;;;3488536;41;20398;-76
2021/08/01 03:43:23;;;;;;;19.40;8.75;;;15.30;99.90;;;;;;3480489;41;20233;-76
2021/08/01 03:45:49;;;;;;;13.38;9.15;;;15.20;99.90;;;;;;3480722;41;20056;-76
2021/08/01 03:48:15;;;;;;;14.20;9.45;;;15.30;99.90;;;;;;3481008;41;20063;-75
2021/08/01 03:50:41;;;;;;;13.65;8.60;;;15.30;99.90;;;;;;3489484;41;20148;-76
2021/08/01 03:53:07;;;;;;;15.70;7.82;;;15.30;99.90;;;;;;3489076;41;20058;-75
2021/08/01 03:55:33;;;;;;;15.55;8.63;;;15.30;99.90;;;;;;3488822;41;20061;-77
2021/08/01 03:57:59;;;;;;;11.90;8.45;;;15.30;99.90;;;;;;3489317;41;20222;-79
2021/08/01 04:00:25;;;;;;;15.60;9.43;;;15.30;99.90;;;;;;3489148;41;20054;-78
2021/08/01 04:02:51;;;;;;;12.85;9.00;;;15.30;99.90;;;;;;3488819;41;20104;-75
2021/08/01 04:05:17;;;;;;;12.40;8.90;;;15.30;99.90;;;;;;3489128;41;20359;-78
2021/08/01 04:07:45;;;;;;;15.07;9.93;;;15.30;99.90;;;;;;3480537;41;20052;-75
2021/08/01 04:10:10;;;;;;;15.73;10.07;;;15.30;99.90;;;;;;3489152;41;20136;-74
2021/08/01 04:12:37;;;;;;;13.15;9.57;;;15.30;99.90;;;;;;3489018;41;20052;-74
2021/08/01 04:15:04;;;;;;;14.43;10.43;;;15.30;99.90;;;;;;3489076;41;20348;-74
2021/08/01 04:17:33;;;;;;;17.23;10.40;;;15.30;99.90;;;;;;3489722;41;20135;-75
2021/08/01 04:19:58;;;;;;;16.42;11.35;;;15.30;99.90;;;;;;3481160;41;20340;-73
2021/08/01 04:22:25;;;;;;;18.85;10.85;;;15.30;99.90;;;;;;3480323;41;20048;-75
2021/08/01 04:24:52;;;;;;;22.15;13.70;;;15.30;99.90;;;;;;3488876;41;20049;-75
2021/08/01 04:27:18;;;;;;;19.25;13.07;;;15.30;99.90;;;;;;3489133;41;20169;-76
2021/08/01 04:29:45;;;;;;;20.90;12.77;;;15.30;99.90;;;;;;3488312;41;20051;-73
2021/08/01 04:32:10;;;;;;;16.17;11.90;;;15.30;99.90;;;;;;3489062;41;20043;-76
2021/08/01 04:38:33;;;;;;;17.02;12.13;;;15.30;99.90;;;;;;3414497;41;20049;-74
2021/08/01 04:40:59;;;;;;;21.30;14.82;;;15.40;99.90;;;;;;3479422;41;20034;-75
2021/08/01 04:43:25;;;;;;;23.02;14.68;;;15.40;99.90;;;;;;3484306;41;20478;-74
2021/08/01 04:45:51;;;;;;;19.48;14.18;;;15.40;99.90;;;;;;3488756;41;20055;-74
2021/08/01 04:48:16;;;;;;;23.80;15.10;;;15.40;99.90;;;;;;3480176;41;20073;-74
2021/08/01 04:50:42;;;;;;;22.98;15.18;;;15.40;99.90;;;;;;3489088;41;20056;-75
2021/08/01 04:53:08;;;;;;;28.17;15.13;;;15.40;99.90;;;;;;3488496;41;20089;-77
2021/08/01 04:55:35;;;;;;;22.08;14.35;;;15.40;99.90;;;;;;3488579;41;20052;-74
2021/08/01 04:58:02;;;;;;;24.80;15.55;;;15.40;99.90;;;;;;3488755;41;20041;-75
2021/08/01 05:00:28;;;;;;;24.48;17.38;;;15.40;99.90;;;;;;3489166;41;20416;-73
2021/08/01 05:02:57;;;;;;;24.38;15.27;;;15.40;99.90;;;;;;3488773;41;20104;-75
2021/08/01 05:05:23;;;;;;;25.45;16.00;;;15.50;99.90;;;;;;3480381;41;20045;-75
2021/08/01 05:07:49;;;;;;;21.85;16.15;;;15.50;99.90;;;;;;3488638;41;20061;-76
2021/08/01 05:10:15;;;;;;;20.40;15.00;;;15.50;99.90;;;;;;3488845;41;20037;-75
2021/08/01 05:12:41;;;;;;;22.95;15.93;;;15.50;99.90;;;;;;3488831;41;20055;-75
2021/08/01 05:15:07;;;;;;;23.85;17.00;;;15.50;99.90;;;;;;3480234;41;20049;-76
2021/08/01 05:17:33;;;;;;;19.55;14.68;;;15.50;99.90;;;;;;3489545;41;20049;-75
2021/08/01 05:19:59;;;;;;;22.60;15.95;;;15.50;99.90;;;;;;3490734;41;20048;-76
2021/08/01 05:22:25;;;;;;;21.50;16.45;;;15.60;99.90;;;;;;3488678;41;20153;-75
2021/08/01 05:24:51;;;;;;;22.15;15.52;;;15.50;99.90;;;;;;3480287;41;20051;-75
2021/08/01 05:27:17;;;;;;;22.90;15.85;;;15.60;99.90;;;;;;3488453;41;20056;-75
2021/08/01 05:29:44;;;;;;;21.70;15.40;;;15.60;99.90;;;;;;3488478;41;20048;-75
2021/08/01 05:32:09;;;;;;;21.65;15.95;;;15.60;99.90;;;;;;3487637;41;20057;-75
2021/08/01 05:34:35;;;;;;;20.25;14.75;;;15.60;99.90;;;;;;3488407;41;20044;-75
2021/08/01 05:37:01;;;;;;;20.80;15.43;;;15.70;99.90;;;;;;3488551;41;20176;-76
2021/08/01 05:39:27;;;;;;;23.70;15.73;;;15.70;99.90;;;;;;3479884;41;20112;-75
2021/08/01 05:41:54;;;;;;;22.13;15.57;;;15.70;99.90;;;;;;3488227;41;20076;-75
2021/08/01 05:44:20;;;;;;;22.70;16.15;;;15.70;99.90;;;;;;3488445;41;20044;-75
2021/08/01 05:46:46;;;;;;;17.58;14.98;;;15.70;99.90;;;;;;3471539;41;20055;-75
2021/08/01 05:49:12;;;;;;;21.25;14.85;;;15.80;99.90;;;;;;3488546;41;20051;-75
2021/08/01 05:51:39;;;;;;;21.55;14.77;;;15.70;99.90;;;;;;3485816;41;20045;-76
2021/08/01 05:54:05;;;;;;;19.48;13.35;;;15.80;99.90;;;;;;3478153;41;20050;-76
2021/08/01 05:56:30;;;;;;;20.67;14.75;;;15.80;99.90;;;;;;3488600;41;20057;-75
2021/08/01 05:58:56;;;;;;;18.33;13.60;;;15.80;99.90;;;;;;3488269;41;20533;-76
2021/08/01 06:01:24;;;;;;;23.27;15.07;;;15.80;99.90;;;;;;3488518;41;20055;-75
2021/08/01 06:03:50;;;;;;;22.90;15.10;;;15.80;99.90;;;;;;3470877;41;20100;-74
2021/08/01 06:06:22;;;;;;;20.52;14.73;;;15.90;99.90;;;;;;3488409;41;20040;-75
2021/08/01 06:08:51;;;;;;;21.42;15.73;;;15.90;99.90;;;;;;3487656;41;20053;-75
2021/08/01 06:11:21;;;;;;;19.67;14.50;;;15.90;99.90;;;;;;3488259;41;20037;-75
2021/08/01 06:13:48;;;;;;;22.88;15.43;;;15.90;99.90;;;;;;3488013;41;20053;-75
2021/08/01 06:16:14;;;;;;;18.85;14.82;;;16.00;99.90;;;;;;3488784;41;20522;-76
2021/08/01 06:18:42;;;;;;;20.85;13.15;;;16.00;99.90;;;;;;3481751;41;20088;-74
2021/08/01 06:21:14;;;;;;;20.60;13.73;;;16.00;99.90;;;;;;3488385;41;20121;-76
2021/08/01 06:23:51;;;;;;;21.40;15.50;;;16.00;99.90;;;;;;3488143;41;20041;-74
2021/08/01 06:26:20;;;;;;;17.95;13.75;;;16.00;99.90;;;;;;3489613;41;20053;-75
2021/08/01 06:28:47;;;;;;;19.17;13.45;;;16.10;99.90;;;;;;3488047;41;20147;-76
2021/08/01 06:31:13;;;;;;;17.25;12.90;;;16.10;99.90;;;;;;3488438;41;20049;-76
2021/08/01 06:33:40;;;;;;;17.55;13.07;;;16.10;99.90;;;;;;3487939;41;20045;-74
2021/08/01 06:36:08;;;;;;;19.08;13.27;;;16.10;99.90;;;;;;3479414;41;20274;-76
2021/08/01 06:38:35;;;;;;;20.23;12.15;;;16.20;99.90;;;;;;3479141;41;20037;-75
2021/08/01 06:41:00;;;;;;;14.98;12.57;;;16.20;99.90;;;;;;3487986;41;20048;-77
2021/08/01 06:43:26;;;;;;;15.00;10.63;;;16.30;99.90;;;;;;3486899;41;20136;-76
2021/08/01 06:45:53;;;;;;;13.80;10.38;;;16.40;99.90;;;;;;3487744;41;20082;-76
2021/08/01 06:48:19;;;;;;;13.98;9.32;;;16.40;99.90;;;;;;3488153;41;20041;-76
2021/08/01 06:50:44;;;;;;;12.65;10.23;;;16.40;99.90;;;;;;3478938;41;20055;-77
2021/08/01 06:53:10;;;;;;;14.65;11.00;;;16.50;99.90;;;;;;3488078;41;20077;-76
2021/08/01 06:55:36;;;;;;;15.13;11.73;;;16.50;99.90;;;;;;3488004;41;20052;-75
2021/08/01 06:58:02;;;;;;;18.65;12.77;;;16.50;99.90;;;;;;3487896;41;20040;-78
2021/08/01 07:00:28;;;;;;;16.90;13.40;;;16.50;99.90;;;;;;3488208;41;20055;-77
2021/08/01 07:02:59;;;;;;;18.92;14.43;;;16.60;99.90;;;;;;3484566;41;20041;-76
2021/08/01 07:05:27;;;;;;;15.50;12.57;;;16.60;99.90;;;;;;3484942;41;20060;-76
2021/08/01 07:07:53;;;;;;;14.10;12.27;;;16.60;99.90;;;;;;3487816;41;20141;-77
2021/08/01 07:10:20;;;;;;;15.38;11.23;;;16.70;99.90;;;;;;3487992;41;20056;-77
2021/08/01 07:12:46;;;;;;;17.80;13.18;;;16.80;99.90;;;;;;3487622;41;20048;-78
2021/08/01 07:15:13;;;;;;;17.08;11.88;;;16.80;99.90;;;;;;3471653;41;20100;-79
2021/08/01 07:17:40;;;;;;;16.88;14.05;;;16.90;99.90;;;;;;3490670;41;20055;-77
2021/08/01 07:20:08;;;;;;;20.00;13.90;;;16.90;99.90;;;;;;3489676;41;20045;-78
2021/08/01 07:22:34;;;;;;;17.52;12.85;;;16.90;99.90;;;;;;3489470;41;20052;-78
2021/08/01 07:25:01;;;;;;;15.93;12.77;;;17.00;99.90;;;;;;3490425;41;20045;-77
2021/08/01 07:27:27;;;;;;;18.15;13.25;;;17.00;99.90;;;;;;3489604;41;20045;-76
2021/08/01 07:29:52;;;;;;;19.48;12.57;;;17.00;99.90;;;;;;3472696;41;20217;-78
2021/08/01 07:32:18;;;;;;;14.80;11.43;;;17.00;99.90;;;;;;3489647;41;20048;-78
2021/08/01 07:34:44;;;;;;;12.75;11.05;;;17.00;99.90;;;;;;3480564;41;20041;-77
2021/08/01 07:37:10;;;;;;;17.80;11.63;;;17.10;99.90;;;;;;3489027;41;20105;-76
2021/08/01 07:39:35;;;;;;;13.80;11.65;;;17.10;99.90;;;;;;3489088;41;20048;-77
2021/08/01 07:42:01;;;;;;;15.60;11.68;;;17.10;99.90;;;;;;3489126;41;20091;-77
2021/08/01 07:44:29;;;;;;;14.70;12.20;;;17.10;99.90;;;;;;3488812;41;20152;-77
2021/08/01 07:46:55;;;;;;;14.52;12.32;;;17.20;99.90;;;;;;3480289;41;20057;-77
2021/08/01 07:49:22;;;;;;;15.80;11.90;;;17.30;99.90;;;;;;3480447;41;20132;-78
2021/08/01 07:51:48;;;;;;;14.70;12.40;;;17.30;99.90;;;;;;3480211;41;20055;-78
2021/08/01 07:54:14;;;;;;;17.63;13.43;;;17.40;99.90;;;;;;3489402;41;21447;-79
2021/08/01 07:56:40;;;;;;;16.02;12.43;;;17.50;99.90;;;;;;3489382;41;20077;-79
2021/08/01 07:59:06;;;;;;;17.65;13.13;;;17.60;99.90;;;;;;3480230;41;20059;-78
2021/08/01 08:01:31;;;;;;;19.08;13.20;;;17.60;99.90;;;;;;3489143;41;20052;-77
2021/08/01 08:03:57;;;;;;;20.20;13.00;;;17.70;99.90;;;;;;3489298;41;20047;-79
2021/08/01 08:06:23;;;;;;;21.73;13.20;;;17.70;99.90;;;;;;3480651;41;20049;-79
2021/08/01 08:08:48;;;;;;;17.80;13.60;;;17.70;99.90;;;;;;3471099;41;20533;-79
2021/08/01 08:11:15;;;;;;;21.15;15.85;;;17.70;99.90;;;;;;3473053;41;20540;-80
2021/08/01 08:13:40;;;;;;;23.27;16.17;;;17.60;99.90;;;;;;3422942;40;21565;-80
2021/08/01 08:16:06;;;;;;;18.75;13.48;;;17.60;99.90;;;;;;3490861;41;20691;-79
2021/08/01 08:18:32;;;;;;;19.17;14.73;;;17.60;99.90;;;;;;3492638;41;20053;-79
2021/08/01 08:20:58;;;;;;;16.48;13.02;;;17.60;99.90;;;;;;3494548;41;20044;-79
2021/08/01 08:23:23;;;;;;;13.75;8.43;;;17.50;99.90;;;;;;3498643;41;20052;-78
2021/08/01 08:25:50;;;;;;;4.20;1.88;;;17.50;99.90;;;;;;3489279;41;20060;-80
2021/08/01 08:28:16;;;;;;;1.98;0.50;;;17.40;99.90;;;;;;3497050;41;20094;-79
2021/08/01 08:30:42;;;;;;;4.72;1.05;;;17.30;99.90;;;;;;3498259;41;20052;-78
2021/08/01 08:33:10;;;;;;;2.72;0.40;;;17.20;99.90;;;;;;3498345;41;20328;-78
2021/08/01 08:35:36;;;;;;;2.40;0.30;;;17.10;99.90;;;;;;3489168;41;20045;-79
2021/08/01 08:38:02;;;;;;;3.70;0.50;;;17.00;99.90;;;;;;3498324;41;20048;-79
2021/08/01 08:40:29;;;;;;;1.67;0.40;;;16.90;99.90;;;;;;3498490;41;20040;-79
2021/08/01 08:42:54;;;;;;;4.03;0.73;;;16.80;99.90;;;;;;3498041;41;20044;-78
2021/08/01 08:45:20;;;;;;;1.35;0.30;;;16.80;99.90;;;;;;3498449;41;20055;-80
2021/08/01 08:47:48;;;;;;;3.33;0.20;;;16.70;99.90;;;;;;3498247;41;20083;-79
2021/08/01 08:50:16;;;;;;;3.20;0.20;;;16.70;99.90;;;;;;3498255;41;20044;-81
2021/08/01 08:52:46;;;;;;;0.90;0.22;;;16.60;99.90;;;;;;3497940;41;20051;-80
2021/08/01 08:55:14;;;;;;;2.50;0.40;;;16.60;99.90;;;;;;3498158;41;20040;-80
2021/08/01 08:57:50;;;;;;;0.70;0.32;;;16.50;99.90;;;;;;3497246;41;20063;-79
2021/08/01 09:00:16;;;;;;;1.33;0.28;;;16.40;99.90;;;;;;3497914;41;20040;-78
2021/08/01 09:02:43;;;;;;;2.05;0.22;;;16.40;99.90;;;;;;3497767;41;20111;-78
2021/08/01 09:05:09;;;;;;;2.60;0.47;;;16.30;99.90;;;;;;3496844;41;20043;-78
2021/08/01 09:07:38;;;;;;;4.22;0.30;;;16.30;99.90;;;;;;3495460;41;20047;-78
2021/08/01 09:10:06;;;;;;;3.28;0.20;;;16.30;99.90;;;;;;3497953;41;20059;-78
2021/08/01 09:12:47;;;;;;;1.13;0.20;;;16.30;99.90;;;;;;3497636;41;20088;-78
2021/08/01 09:15:18;;;;;;;1.05;0.20;;;16.30;99.90;;;;;;3488800;41;20044;-78
2021/08/01 09:17:45;;;;;;;0.88;0.30;;;16.30;99.90;;;;;;3498850;41;20043;-77
2021/08/01 09:20:22;;;;;;;1.05;0.55;;;16.30;99.90;;;;;;3496667;41;20039;-77
2021/08/01 09:23:00;;;;;;;1.85;0.20;;;16.40;99.90;;;;;;3497470;41;20177;-76
2021/08/01 09:25:34;;;;;;;1.48;0.82;;;16.40;99.90;;;;;;3498234;41;20055;-76
2021/08/01 09:28:21;;;;;;;0.93;0.20;;;16.50;99.90;;;;;;3497242;41;20251;-76
2021/08/01 09:30:59;;;;;;;2.97;0.35;;;16.60;99.90;;;;;;3497394;41;20060;-77
2021/08/01 09:33:34;;;;;;;1.77;0.95;;;16.70;99.90;;;;;;3497858;41;20043;-77
2021/08/01 09:36:10;;;;;;;3.83;0.73;;;16.80;99.90;;;;;;3497842;41;20052;-76
2021/08/01 09:39:04;;;;;;;5.90;1.10;;;16.80;99.90;;;;;;3497678;41;20110;-76
2021/08/01 09:41:33;;;;;;;1.08;0.40;;;16.90;99.90;;;;;;3495682;41;20115;-76
2021/08/01 09:44:17;;;;;;;1.52;0.50;;;17.00;99.90;;;;;;3497829;41;20099;-76
2021/08/01 09:46:48;;;;;;;1.77;0.20;;;17.10;99.90;;;;;;3497929;41;20044;-76
2021/08/01 09:49:19;;;;;;;0.52;0.20;;;17.20;99.90;;;;;;3489233;41;20044;-77
2021/08/01 09:51:46;;;;;;;1.85;0.20;;;17.40;99.90;;;;;;3497871;41;20044;-78
2021/08/01 09:54:14;;;;;;;0.77;0.30;;;17.60;99.90;;;;;;3498057;41;20040;-77
2021/08/01 09:57:07;;;;;;;0.90;0.38;;;17.80;99.90;;;;;;3498207;41;20328;-77
2021/08/01 09:59:33;;;;;;;1.83;0.22;;;18.00;99.90;;;;;;3488248;41;20312;-78
2021/08/01 10:02:00;;;;;;;0.50;0.20;;;18.10;99.90;;;;;;3489307;41;20152;-77
2021/08/01 10:04:27;;;;;;;3.38;0.73;;;18.20;99.90;;;;;;3498108;41;20045;-77
2021/08/01 10:07:13;;;;;;;1.33;0.68;;;18.30;99.90;;;;;;3497497;41;20140;-77
2021/08/01 10:09:42;;;;;;;1.67;0.45;;;18.30;99.90;;;;;;3497734;41;20036;-77
2021/08/01 10:12:09;;;;;;;2.20;0.55;;;18.40;99.90;;;;;;3497684;41;20045;-77
2021/08/01 10:14:37;;;;;;;1.60;0.40;;;18.50;99.90;;;;;;3497694;41;20067;-76
2021/08/01 10:17:04;;;;;;;2.15;0.50;;;18.60;99.90;;;;;;3497742;41;20139;-76
2021/08/01 10:19:30;;;;;;;2.83;0.52;;;18.80;99.90;;;;;;3499595;41;20151;-76
2021/08/01 10:22:02;;;;;;;2.22;0.63;;;18.90;99.90;;;;;;3488506;41;20122;-75
2021/08/01 10:24:34;;;;;;;2.20;0.32;;;19.00;99.90;;;;;;3498571;41;20109;-75
2021/08/01 10:27:03;;;;;;;5.00;0.52;;;19.10;99.90;;;;;;3497549;41;20044;-75
2021/08/01 10:29:51;;;;;;;2.13;0.60;;;19.10;99.90;;;;;;3497581;41;20051;-75
2021/08/01 10:32:20;;;;;;;2.70;0.60;;;19.20;99.90;;;;;;3498050;41;20068;-75
2021/08/01 10:34:55;;;;;;;2.83;0.45;;;19.40;99.90;;;;;;3497552;41;20045;-75
2021/08/01 10:37:45;;;;;;;4.22;0.65;;;19.50;99.90;;;;;;3497718;41;20048;-75
2021/08/01 10:40:14;;;;;;;3.92;0.30;;;19.60;99.90;;;;;;3497386;41;20040;-75
2021/08/01 10:42:42;;;;;;;2.38;0.60;;;19.70;99.90;;;;;;3497379;41;20044;-76
2021/08/01 10:45:09;;;;;;;1.70;0.70;;;19.90;99.90;;;;;;3497809;41;20415;-75
2021/08/01 10:47:36;;;;;;;3.35;0.57;;;19.80;99.90;;;;;;3488581;41;20044;-75
2021/08/01 10:50:05;;;;;;;5.57;0.50;;;19.70;99.90;;;;;;3497146;41;20053;-75
2021/08/01 10:52:34;;;;;;;3.58;0.40;;;19.70;99.90;;;;;;3497563;41;20048;-76
2021/08/01 10:55:05;;;;;;;2.40;0.50;;;19.70;99.90;;;;;;3488870;41;20240;-75
2021/08/01 10:57:32;;;;;;;1.90;0.30;;;19.70;99.90;;;;;;3488602;41;20045;-75
2021/08/01 11:00:08;;;;;;;1.95;0.40;;;19.70;99.90;;;;;;3497388;41;20048;-76
2021/08/01 11:02:36;;;;;;;1.63;0.25;;;19.80;99.90;;;;;;3497295;41;20570;-77
2021/08/01 11:05:37;;;;;;;1.75;0.50;;;20.00;99.90;;;;;;3497460;41;20139;-75
2021/08/01 11:08:03;;;;;;;2.15;0.30;;;20.20;99.90;;;;;;3497558;41;20048;-76
2021/08/01 11:10:29;;;;;;;0.80;0.45;;;20.30;99.90;;;;;;3497787;41;20051;-76
2021/08/01 11:12:55;;;;;;;1.95;0.30;;;20.60;99.90;;;;;;3488374;41;20045;-76
2021/08/01 11:15:42;;;;;;;1.35;0.30;;;20.80;99.90;;;;;;3497401;41;20056;-77
2021/08/01 11:18:08;;;;;;;2.83;0.40;;;21.10;99.90;;;;;;3498088;41;20036;-77
2021/08/01 11:20:34;;;;;;;2.45;0.30;;;21.10;99.90;;;;;;3497056;41;20549;-78
2021/08/01 11:23:01;;;;;;;1.85;0.40;;;21.00;99.90;;;;;;3488544;41;20218;-77
2021/08/01 11:25:28;;;;;;;1.73;0.40;;;20.80;99.90;;;;;;3497301;41;20761;-76
2021/08/01 11:28:12;;;;;;;1.67;0.70;;;20.70;99.90;;;;;;3497006;41;20084;-77
2021/08/01 11:33:32;;;;;;;2.53;0.63;;;20.50;99.90;;;;;;3497446;41;20324;-76
2021/08/01 11:36:13;;;;;;;4.03;0.40;;;20.50;99.90;;;;;;3495844;41;20044;-77
2021/08/01 11:38:39;;;;;;;1.33;0.30;;;20.70;99.90;;;;;;3497351;41;20044;-77
2021/08/01 11:41:06;;;;;;;2.15;0.43;;;20.70;99.90;;;;;;3497131;41;20040;-77
2021/08/01 11:43:33;;;;;;;5.68;1.20;;;20.60;99.90;;;;;;3497047;41;20052;-77
2021/08/01 11:46:06;;;;;;;3.30;0.40;;;20.60;99.90;;;;;;3497113;41;20132;-77
2021/08/01 11:48:33;;;;;;;2.33;0.30;;;20.60;99.90;;;;;;3497266;41;20053;-77
2021/08/01 11:51:05;;;;;;;6.18;1.25;;;20.70;99.90;;;;;;3480460;41;20036;-76
2021/08/01 11:53:32;;;;;;;1.98;0.30;;;20.80;99.90;;;;;;3497153;41;20088;-79
2021/08/01 11:56:00;;;;;;;4.65;0.40;;;20.80;99.90;;;;;;3488306;41;20704;-77
2021/08/01 11:58:31;;;;;;;1.27;0.52;;;20.90;99.90;;;;;;3480655;41;20076;-77
2021/08/01 12:00:58;;;;;;;1.25;0.30;;;20.80;99.30;;;;;;3497493;41;20617;-77
2021/08/01 12:03:28;;;;;;;2.80;0.30;;;20.90;99.90;;;;;;3498862;41;20247;-78
2021/08/01 12:05:54;;;;;;;2.35;0.50;;;21.10;99.90;;;;;;3489670;41;20048;-78
2021/08/01 12:08:31;;;;;;;2.25;0.77;;;21.30;99.90;;;;;;3494950;41;20051;-78
2021/08/01 12:11:12;;;;;;;0.98;0.30;;;21.30;99.90;;;;;;3480562;41;20172;-78
2021/08/01 12:13:38;;;;;;;4.53;0.55;;;21.30;99.00;;;;;;3489185;41;20066;-78
2021/08/01 12:16:15;;;;;;;2.72;0.30;;;21.10;99.90;;;;;;3498656;41;20052;-78
2021/08/01 12:18:41;;;;;;;2.58;0.30;;;21.00;99.60;;;;;;3504216;41;20319;-77
2021/08/01 12:21:27;;;;;;;2.22;0.30;;;20.90;99.80;;;;;;3508715;41;20047;-78
2021/08/01 12:23:53;;;;;;;1.60;0.28;;;20.80;98.50;;;;;;3494459;41;20057;-78
2021/08/01 12:26:39;;;;;;;3.22;0.50;;;20.70;99.40;;;;;;3498869;41;20048;-78
2021/08/01 12:29:06;;;;;;;0.95;0.45;;;20.60;98.00;;;;;;3492593;41;20277;-79
2021/08/01 12:31:32;;;;;;;5.75;0.98;;;20.50;99.40;;;;;;3498707;41;20048;-80
2021/08/01 12:33:58;;;;;;;2.45;0.43;;;20.50;99.40;;;;;;3489862;41;20040;-78
2021/08/01 12:36:28;;;;;;;4.88;0.50;;;20.50;99.70;;;;;;3498832;41;20048;-80
2021/08/01 12:38:54;;;;;;;1.30;0.60;;;20.60;99.80;;;;;;3487979;41;20127;-78
2021/08/01 12:41:20;;;;;;;1.00;0.40;;;20.60;99.60;;;;;;3489372;41;20854;-78
2021/08/01 12:43:47;;;;;;;3.25;0.70;;;20.50;99.40;;;;;;3489333;41;20280;-78
2021/08/01 12:46:17;;;;;;;2.63;0.30;;;20.50;99.20;;;;;;3488969;41;20133;-79
2021/08/01 12:48:46;;;;;;;5.45;0.50;;;20.60;99.30;;;;;;3488879;41;20085;-78
2021/08/01 12:51:12;;;;;;;4.57;0.85;;;20.70;99.80;;;;;;3488951;41;20603;-78
2021/08/01 12:53:38;;;;;;;3.15;0.50;;;20.80;99.20;;;;;;3488961;41;20053;-78